Terminal Aerodrome Forecast
Issued by NWS Pocatello, ID

Home | Current Version | Previous Version | Text Only | Print | Product List | Glossary On
Versions: 1 2 3 4 5 6 7 8 9 10 11 12 13 14 15 16 17
000
FTUS45 KPIH 310600 AAA
TAFBYI
TAF AMD
KBYI 310658Z 3107/0106 27013G23KT P6SM VCSH BKN070
     FM310800 25012G18KT P6SM SCT050 BKN100
     FM311700 26015G25KT P6SM SCT150
     FM010200 21007KT P6SM SCT200=

USA.gov is the U.S. government's official web portal to all federal, state and local government web resources and services.